Time;durP1;ratioP1;P1;durP2;ratioP2;P2;SDS_P1;SDS_P2;PMS_P1;PMS_P2;Temp;Humidity;BMP_temperature;BMP_pressure;BME280_temperature;BME280_humidity;BME280_pressure;Samples;Min_cycle;Max_cycle;Signal;HPM_P1;HPM_P2
2020/12/16 11:28:07;;;;;;;18.80;12.00;;;9.30;99.90;;;;;;5104937;27;20736;-78
2020/12/16 11:30:33;;;;;;;17.30;11.43;;;9.50;99.90;;;;;;5082806;28;20028;-78
2020/12/16 11:32:59;;;;;;;20.40;12.38;;;9.80;99.90;;;;;;5050350;28;20040;-77
2020/12/16 11:35:24;;;;;;;22.63;11.63;;;10.30;99.90;;;;;;5039723;28;20559;-78
2020/12/16 11:37:50;;;;;;;22.52;11.88;;;10.60;99.90;;;;;;5039912;28;20067;-78
2020/12/16 11:40:16;;;;;;;21.60;12.40;;;11.00;99.90;;;;;;5055333;28;20045;-78
2020/12/16 11:42:42;;;;;;;22.30;11.88;;;11.20;99.90;;;;;;5052048;28;20922;-78
2020/12/16 11:45:09;;;;;;;26.55;13.38;;;11.40;99.90;;;;;;5056868;28;20828;-78
2020/12/16 11:47:36;;;;;;;18.73;12.15;;;11.60;99.90;;;;;;5047057;28;20033;-77
2020/12/16 11:50:08;;;;;;;19.23;11.32;;;11.80;99.90;;;;;;5027858;28;20025;-77
2020/12/16 11:52:33;;;;;;;19.92;11.75;;;12.00;99.90;;;;;;5042437;28;20037;-78
2020/12/16 11:54:59;;;;;;;21.95;12.32;;;12.00;99.90;;;;;;5036116;28;20380;-78
2020/12/16 11:57:26;;;;;;;18.85;11.18;;;12.00;99.90;;;;;;5035734;28;20291;-77
2020/12/16 11:59:52;;;;;;;19.90;10.75;;;12.10;99.90;;;;;;5033718;28;20045;-77
2020/12/16 12:02:17;;;;;;;18.50;10.60;;;12.20;99.90;;;;;;5034463;28;20704;-78
2020/12/16 12:04:43;;;;;;;17.70;8.90;;;12.20;99.90;;;;;;5022800;28;20049;-78
2020/12/16 12:07:09;;;;;;;17.08;9.02;;;12.30;99.90;;;;;;5039046;28;20040;-78
2020/12/16 12:09:35;;;;;;;14.77;9.50;;;12.40;99.90;;;;;;5041621;28;20036;-78
2020/12/16 12:12:01;;;;;;;16.38;9.00;;;12.40;99.90;;;;;;5039361;28;20392;-78
2020/12/16 12:14:28;;;;;;;15.70;9.13;;;12.50;99.90;;;;;;5039098;28;20029;-78
2020/12/16 12:16:54;;;;;;;13.70;8.15;;;12.50;99.90;;;;;;5039468;28;20090;-78
2020/12/16 12:19:19;;;;;;;10.00;7.07;;;12.50;99.90;;;;;;5039363;28;20033;-78
2020/12/16 12:21:46;;;;;;;11.05;7.45;;;12.50;99.90;;;;;;5043510;28;20033;-77
2020/12/16 12:24:12;;;;;;;8.85;6.63;;;12.50;99.90;;;;;;5045646;28;20396;-78
2020/12/16 12:26:38;;;;;;;10.70;6.65;;;12.50;99.90;;;;;;5043042;28;20041;-78
2020/12/16 12:29:03;;;;;;;11.07;6.57;;;12.50;99.90;;;;;;5049546;28;20082;-78
2020/12/16 12:31:29;;;;;;;8.65;6.25;;;12.50;99.90;;;;;;5043730;28;20498;-79
2020/12/16 12:33:55;;;;;;;9.60;6.38;;;12.50;99.90;;;;;;5056412;28;20373;-77
2020/12/16 12:36:21;;;;;;;10.98;6.75;;;12.50;99.90;;;;;;5042538;28;20025;-78
2020/12/16 12:38:46;;;;;;;11.23;6.97;;;12.50;99.90;;;;;;5037896;28;20029;-78
2020/12/16 12:41:14;;;;;;;9.50;6.28;;;12.50;99.90;;;;;;5027314;28;20032;-79
2020/12/16 12:43:40;;;;;;;9.60;6.95;;;12.50;99.90;;;;;;5029862;28;20089;-79
2020/12/16 12:46:07;;;;;;;11.38;6.65;;;12.50;99.90;;;;;;5029824;28;20162;-79
2020/12/16 12:48:33;;;;;;;11.77;7.90;;;12.60;99.90;;;;;;5026632;28;20493;-79
2020/12/16 12:50:59;;;;;;;13.82;8.48;;;12.70;99.90;;;;;;5024705;28;20032;-74
2020/12/16 12:53:24;;;;;;;14.27;9.98;;;12.70;99.90;;;;;;5031499;28;20083;-77
2020/12/16 12:55:50;;;;;;;16.40;10.77;;;12.70;99.90;;;;;;5030425;28;20586;-77
2020/12/16 12:58:16;;;;;;;15.77;10.90;;;12.70;99.90;;;;;;5033462;28;20029;-77
2020/12/16 13:00:41;;;;;;;13.13;9.50;;;12.70;99.90;;;;;;5021764;28;20060;-78
2020/12/16 13:03:07;;;;;;;13.60;8.80;;;12.70;99.90;;;;;;5027169;28;20033;-76
2020/12/16 13:05:33;;;;;;;11.18;8.70;;;12.70;99.90;;;;;;5022309;28;20467;-76
2020/12/16 13:07:58;;;;;;;10.75;7.05;;;12.60;99.90;;;;;;5020947;28;20034;-79
2020/12/16 13:10:24;;;;;;;8.75;6.30;;;12.60;99.90;;;;;;5017218;28;20029;-79
2020/12/16 13:12:52;;;;;;;10.35;6.07;;;12.60;99.90;;;;;;5028204;28;20389;-80
2020/12/16 13:15:18;;;;;;;10.13;6.13;;;12.60;99.90;;;;;;5030081;28;20053;-80
2020/12/16 13:17:44;;;;;;;10.98;6.35;;;12.60;99.90;;;;;;5022170;28;20057;-80
2020/12/16 13:20:10;;;;;;;9.85;6.07;;;12.70;99.90;;;;;;5016937;28;20038;-80
2020/12/16 13:22:36;;;;;;;8.43;5.40;;;12.70;99.90;;;;;;5020875;28;20024;-82
2020/12/16 13:25:02;;;;;;;9.05;5.40;;;12.70;99.90;;;;;;5028386;28;20021;-81
2020/12/16 13:27:27;;;;;;;7.35;5.40;;;12.80;99.90;;;;;;5027423;28;20046;-80
2020/12/16 13:29:54;;;;;;;9.27;5.65;;;12.80;99.90;;;;;;5022874;28;20096;-82
2020/12/16 13:32:20;;;;;;;16.23;6.05;;;12.70;99.90;;;;;;5022643;28;20858;-81
2020/12/16 13:34:46;;;;;;;8.38;6.07;;;12.70;99.90;;;;;;5028639;28;20530;-81
2020/12/16 13:37:13;;;;;;;11.13;5.90;;;12.70;99.90;;;;;;5032185;28;20064;-80
2020/12/16 13:39:39;;;;;;;12.00;6.15;;;12.70;99.90;;;;;;5038231;28;20029;-81
2020/12/16 13:42:05;;;;;;;9.18;5.75;;;12.70;99.90;;;;;;5033262;28;20048;-82
2020/12/16 13:44:30;;;;;;;12.55;5.93;;;12.70;99.90;;;;;;5064544;28;20091;-82
2020/12/16 13:46:56;;;;;;;9.10;6.05;;;12.70;99.90;;;;;;5049115;28;20069;-81
2020/12/16 13:49:22;;;;;;;13.00;5.55;;;12.70;99.90;;;;;;5028192;28;20432;-81
2020/12/16 13:51:48;;;;;;;9.35;5.85;;;12.70;99.90;;;;;;5039459;28;20386;-82
2020/12/16 13:54:13;;;;;;;8.57;6.30;;;12.70;99.90;;;;;;5057646;28;20064;-81
2020/12/16 13:56:39;;;;;;;12.25;6.85;;;12.70;99.90;;;;;;5031254;28;20112;-80
2020/12/16 13:59:05;;;;;;;9.35;6.28;;;12.70;99.90;;;;;;5025432;28;20029;-80
2020/12/16 14:01:31;;;;;;;11.13;6.40;;;12.70;99.90;;;;;;5038629;28;20039;-80
2020/12/16 14:03:57;;;;;;;10.85;5.95;;;12.80;99.90;;;;;;5025520;28;20034;-80
2020/12/16 14:06:24;;;;;;;10.48;6.32;;;12.80;99.90;;;;;;5025068;28;20037;-81
2020/12/16 14:08:50;;;;;;;14.00;7.25;;;12.80;99.90;;;;;;5026185;28;20105;-79
2020/12/16 14:11:19;;;;;;;13.40;6.45;;;12.80;99.90;;;;;;5022094;28;27933;-80
2020/12/16 14:13:46;;;;;;;10.98;6.50;;;12.80;99.90;;;;;;5020765;28;20140;-79
2020/12/16 14:16:13;;;;;;;9.68;6.13;;;12.80;99.90;;;;;;5002846;28;20037;-80
2020/12/16 14:18:39;;;;;;;10.52;6.57;;;12.90;99.90;;;;;;5021286;28;20032;-81
2020/12/16 14:21:07;;;;;;;13.82;7.10;;;12.80;99.90;;;;;;5023108;28;20108;-80
2020/12/16 14:23:34;;;;;;;15.13;7.20;;;12.80;99.90;;;;;;5021508;28;20025;-80
2020/12/16 15:14:07;;;;;;;11.75;7.47;;;10.30;99.90;;;;;;5112735;27;20366;-83
2020/12/16 15:16:34;;;;;;;14.13;8.07;;;10.40;99.90;;;;;;5082929;28;20033;-80
2020/12/16 15:19:02;;;;;;;11.25;7.50;;;10.80;99.90;;;;;;5076702;28;20426;-81
2020/12/16 15:21:28;;;;;;;13.10;7.60;;;11.20;99.90;;;;;;5059034;28;20083;-77
2020/12/16 15:23:54;;;;;;;14.52;7.60;;;11.50;99.90;;;;;;5078539;28;20119;-77
2020/12/16 15:26:20;;;;;;;11.90;8.02;;;11.80;99.90;;;;;;5074178;28;20036;-77
2020/12/16 15:28:47;;;;;;;13.07;7.90;;;12.00;99.90;;;;;;5071512;28;20586;-76
